Wilton Manors, Florida
Current Conditions -  °F | °C
As of 2:53 PM on Friday 28 Nov 2014 (Local Time) from KFXE Reporting Station
Few Clouds Few Clouds  
Wind Chill: 69°   Ceiling: Unl
Heat Index: 69°   Visibility: 10mi
Dew Point: 51°   Wind: 8mph
Humidity: 53%   Direction: 360°N
Pressure: 30.16"   Gusts: 17mph
Location:  26.1649°N, 80.1136°W
Report Text: KFXE 281953Z 36007G15KT 10SM FEW040 21/11 A3016 RMK AO2 SLP214 T02060106
Loading
Personal Weather Stations






























Interactive Weather Map New forecast layout! Learn more

10-Day Weather Forecast

Advertisements
Track Severe Weather on mobile